sensor_id;sensor_type;location;lat;lon;timestamp;P1;durP1;ratioP1;P2;durP2;ratioP2
31284;SDS011;56605;51.516;6.742;2022-12-24T00:00:29;14.95;;;3.90;;
31284;SDS011;56605;51.516;6.742;2022-12-24T00:02:54;17.88;;;4.07;;
31284;SDS011;56605;51.516;6.742;2022-12-24T00:05:20;10.52;;;3.22;;
31284;SDS011;56605;51.516;6.742;2022-12-24T00:07:45;14.15;;;4.00;;
31284;SDS011;56605;51.516;6.742;2022-12-24T00:10:10;18.05;;;3.30;;
31284;SDS011;56605;51.516;6.742;2022-12-24T00:12:36;19.48;;;3.85;;
31284;SDS011;56605;51.516;6.742;2022-12-24T00:15:02;15.07;;;2.83;;
31284;SDS011;56605;51.516;6.742;2022-12-24T00:17:29;11.38;;;3.42;;
31284;SDS011;56605;51.516;6.742;2022-12-24T00:19:54;21.80;;;3.58;;
31284;SDS011;56605;51.516;6.742;2022-12-24T00:22:19;16.85;;;3.25;;
31284;SDS011;56605;51.516;6.742;2022-12-24T00:24:44;21.50;;;3.50;;
31284;SDS011;56605;51.516;6.742;2022-12-24T00:27:10;23.13;;;3.85;;
31284;SDS011;56605;51.516;6.742;2022-12-24T00:29:35;19.45;;;3.97;;
31284;SDS011;56605;51.516;6.742;2022-12-24T00:32:00;27.00;;;4.43;;
31284;SDS011;56605;51.516;6.742;2022-12-24T00:34:26;22.65;;;3.83;;
31284;SDS011;56605;51.516;6.742;2022-12-24T00:36:51;15.45;;;3.80;;
31284;SDS011;56605;51.516;6.742;2022-12-24T00:39:17;27.05;;;4.07;;
31284;SDS011;56605;51.516;6.742;2022-12-24T00:41:42;30.60;;;4.63;;
31284;SDS011;56605;51.516;6.742;2022-12-24T00:44:08;18.35;;;3.72;;
31284;SDS011;56605;51.516;6.742;2022-12-24T00:46:35;21.38;;;4.20;;
31284;SDS011;56605;51.516;6.742;2022-12-24T00:49:03;17.75;;;3.90;;
31284;SDS011;56605;51.516;6.742;2022-12-24T00:51:29;21.30;;;4.40;;
31284;SDS011;56605;51.516;6.742;2022-12-24T00:53:55;22.63;;;4.20;;
31284;SDS011;56605;51.516;6.742;2022-12-24T00:56:21;26.55;;;3.63;;
31284;SDS011;56605;51.516;6.742;2022-12-24T00:58:47;21.48;;;4.57;;
31284;SDS011;56605;51.516;6.742;2022-12-24T01:01:13;26.15;;;4.00;;
31284;SDS011;56605;51.516;6.742;2022-12-24T01:03:39;26.77;;;3.80;;
31284;SDS011;56605;51.516;6.742;2022-12-24T01:06:07;17.75;;;4.20;;
31284;SDS011;56605;51.516;6.742;2022-12-24T01:08:35;18.15;;;3.28;;
31284;SDS011;56605;51.516;6.742;2022-12-24T01:11:01;16.25;;;3.60;;
31284;SDS011;56605;51.516;6.742;2022-12-24T01:13:27;21.63;;;3.50;;
31284;SDS011;56605;51.516;6.742;2022-12-24T01:15:53;23.80;;;3.78;;
31284;SDS011;56605;51.516;6.742;2022-12-24T01:18:19;22.88;;;4.20;;
31284;SDS011;56605;51.516;6.742;2022-12-24T01:20:44;22.92;;;4.28;;
31284;SDS011;56605;51.516;6.742;2022-12-24T01:23:09;22.30;;;4.40;;
31284;SDS011;56605;51.516;6.742;2022-12-24T01:25:38;29.90;;;4.80;;
31284;SDS011;56605;51.516;6.742;2022-12-24T01:28:03;28.02;;;4.32;;
31284;SDS011;56605;51.516;6.742;2022-12-24T01:30:29;26.65;;;3.88;;
31284;SDS011;56605;51.516;6.742;2022-12-24T01:32:54;20.52;;;3.55;;
31284;SDS011;56605;51.516;6.742;2022-12-24T01:35:20;20.40;;;3.30;;
31284;SDS011;56605;51.516;6.742;2022-12-24T01:37:45;20.40;;;3.95;;
31284;SDS011;56605;51.516;6.742;2022-12-24T01:40:13;22.70;;;4.28;;
31284;SDS011;56605;51.516;6.742;2022-12-24T01:42:58;16.48;;;3.72;;
31284;SDS011;56605;51.516;6.742;2022-12-24T01:45:44;14.88;;;3.33;;
31284;SDS011;56605;51.516;6.742;2022-12-24T01:50:55;17.42;;;4.35;;
31284;SDS011;56605;51.516;6.742;2022-12-24T01:53:24;18.65;;;3.80;;
31284;SDS011;56605;51.516;6.742;2022-12-24T01:55:49;20.75;;;3.80;;
31284;SDS011;56605;51.516;6.742;2022-12-24T01:58:17;21.38;;;4.65;;
31284;SDS011;56605;51.516;6.742;2022-12-24T02:00:46;28.10;;;4.68;;
31284;SDS011;56605;51.516;6.742;2022-12-24T02:03:11;29.48;;;5.13;;
31284;SDS011;56605;51.516;6.742;2022-12-24T02:05:41;22.83;;;3.17;;
31284;SDS011;56605;51.516;6.742;2022-12-24T02:08:11;24.73;;;4.07;;
31284;SDS011;56605;51.516;6.742;2022-12-24T02:10:38;24.48;;;4.30;;
31284;SDS011;56605;51.516;6.742;2022-12-24T02:13:03;23.52;;;4.72;;
31284;SDS011;56605;51.516;6.742;2022-12-24T02:15:33;17.73;;;3.90;;
31284;SDS011;56605;51.516;6.742;2022-12-24T02:18:18;29.70;;;6.75;;
31284;SDS011;56605;51.516;6.742;2022-12-24T02:23:48;20.30;;;4.07;;
31284;SDS011;56605;51.516;6.742;2022-12-24T02:26:50;20.05;;;3.40;;
31284;SDS011;56605;51.516;6.742;2022-12-24T02:32:22;24.42;;;4.00;;
31284;SDS011;56605;51.516;6.742;2022-12-24T02:35:07;25.33;;;4.43;;
31284;SDS011;56605;51.516;6.742;2022-12-24T02:37:48;17.23;;;5.13;;
31284;SDS011;56605;51.516;6.742;2022-12-24T02:40:23;23.77;;;5.13;;
31284;SDS011;56605;51.516;6.742;2022-12-24T02:42:53;23.17;;;4.47;;
31284;SDS011;56605;51.516;6.742;2022-12-24T02:45:25;21.40;;;4.05;;
31284;SDS011;56605;51.516;6.742;2022-12-24T02:47:54;17.63;;;4.03;;
31284;SDS011;56605;51.516;6.742;2022-12-24T02:50:20;19.05;;;4.28;;
31284;SDS011;56605;51.516;6.742;2022-12-24T02:52:46;22.13;;;4.18;;
31284;SDS011;56605;51.516;6.742;2022-12-24T02:55:16;25.63;;;4.32;;
31284;SDS011;56605;51.516;6.742;2022-12-24T03:00:34;21.60;;;3.95;;
31284;SDS011;56605;51.516;6.742;2022-12-24T03:03:25;26.33;;;4.38;;
31284;SDS011;56605;51.516;6.742;2022-12-24T03:08:46;25.67;;;4.30;;
31284;SDS011;56605;51.516;6.742;2022-12-24T03:11:16;17.65;;;3.53;;
31284;SDS011;56605;51.516;6.742;2022-12-24T03:13:42;27.08;;;5.43;;
31284;SDS011;56605;51.516;6.742;2022-12-24T03:16:20;21.05;;;3.78;;
31284;SDS011;56605;51.516;6.742;2022-12-24T03:18:48;21.30;;;4.85;;
31284;SDS011;56605;51.516;6.742;2022-12-24T03:21:19;22.88;;;5.22;;
31284;SDS011;56605;51.516;6.742;2022-12-24T03:23:54;20.20;;;5.20;;
31284;SDS011;56605;51.516;6.742;2022-12-24T03:26:20;29.40;;;5.60;;
31284;SDS011;56605;51.516;6.742;2022-12-24T03:28:47;28.92;;;4.65;;
31284;SDS011;56605;51.516;6.742;2022-12-24T03:31:13;26.95;;;4.53;;
31284;SDS011;56605;51.516;6.742;2022-12-24T03:33:39;24.55;;;4.85;;
31284;SDS011;56605;51.516;6.742;2022-12-24T03:36:04;28.52;;;4.32;;
31284;SDS011;56605;51.516;6.742;2022-12-24T03:38:31;19.77;;;3.88;;
31284;SDS011;56605;51.516;6.742;2022-12-24T03:40:56;20.60;;;3.38;;
31284;SDS011;56605;51.516;6.742;2022-12-24T03:43:22;28.15;;;5.00;;
31284;SDS011;56605;51.516;6.742;2022-12-24T03:45:47;17.58;;;3.35;;
31284;SDS011;56605;51.516;6.742;2022-12-24T03:48:12;19.05;;;3.75;;
31284;SDS011;56605;51.516;6.742;2022-12-24T03:50:38;19.90;;;3.95;;
31284;SDS011;56605;51.516;6.742;2022-12-24T03:53:03;32.35;;;5.18;;
31284;SDS011;56605;51.516;6.742;2022-12-24T03:55:28;20.17;;;3.28;;
31284;SDS011;56605;51.516;6.742;2022-12-24T03:57:53;24.90;;;3.83;;
31284;SDS011;56605;51.516;6.742;2022-12-24T04:00:19;23.13;;;4.00;;
31284;SDS011;56605;51.516;6.742;2022-12-24T04:02:44;24.58;;;5.38;;
31284;SDS011;56605;51.516;6.742;2022-12-24T04:05:12;22.48;;;5.57;;
31284;SDS011;56605;51.516;6.742;2022-12-24T04:07:42;17.02;;;3.10;;
31284;SDS011;56605;51.516;6.742;2022-12-24T04:10:08;21.80;;;3.78;;
31284;SDS011;56605;51.516;6.742;2022-12-24T04:12:34;16.55;;;4.05;;
31284;SDS011;56605;51.516;6.742;2022-12-24T04:15:00;18.63;;;3.05;;
31284;SDS011;56605;51.516;6.742;2022-12-24T04:17:26;28.80;;;4.75;;
31284;SDS011;56605;51.516;6.742;2022-12-24T04:19:51;19.98;;;4.78;;
31284;SDS011;56605;51.516;6.742;2022-12-24T04:22:16;17.75;;;2.90;;
31284;SDS011;56605;51.516;6.742;2022-12-24T04:24:42;20.35;;;3.65;;
31284;SDS011;56605;51.516;6.742;2022-12-24T04:27:07;29.67;;;3.60;;
31284;SDS011;56605;51.516;6.742;2022-12-24T04:29:32;20.33;;;4.03;;
31284;SDS011;56605;51.516;6.742;2022-12-24T04:31:58;21.10;;;4.28;;
31284;SDS011;56605;51.516;6.742;2022-12-24T04:34:23;19.48;;;3.72;;
31284;SDS011;56605;51.516;6.742;2022-12-24T04:36:48;22.52;;;3.78;;
31284;SDS011;56605;51.516;6.742;2022-12-24T04:39:13;21.45;;;3.78;;
31284;SDS011;56605;51.516;6.742;2022-12-24T04:41:39;17.45;;;4.38;;
31284;SDS011;56605;51.516;6.742;2022-12-24T04:44:04;18.10;;;4.20;;
31284;SDS011;56605;51.516;6.742;2022-12-24T04:46:29;14.93;;;2.83;;
31284;SDS011;56605;51.516;6.742;2022-12-24T04:48:55;15.57;;;3.53;;
31284;SDS011;56605;51.516;6.742;2022-12-24T04:51:21;14.32;;;2.90;;
31284;SDS011;56605;51.516;6.742;2022-12-24T04:53:47;19.83;;;3.42;;
31284;SDS011;56605;51.516;6.742;2022-12-24T04:56:14;17.50;;;3.40;;
31284;SDS011;56605;51.516;6.742;2022-12-24T04:58:43;19.85;;;4.03;;
31284;SDS011;56605;51.516;6.742;2022-12-24T05:01:28;17.02;;;3.45;;
31284;SDS011;56605;51.516;6.742;2022-12-24T05:03:56;14.30;;;3.45;;
31284;SDS011;56605;51.516;6.742;2022-12-24T05:06:22;11.90;;;3.03;;
31284;SDS011;56605;51.516;6.742;2022-12-24T05:08:52;14.75;;;3.42;;
31284;SDS011;56605;51.516;6.742;2022-12-24T05:11:19;19.48;;;3.15;;
31284;SDS011;56605;51.516;6.742;2022-12-24T05:13:44;11.98;;;3.00;;
31284;SDS011;56605;51.516;6.742;2022-12-24T05:16:10;18.60;;;3.55;;
31284;SDS011;56605;51.516;6.742;2022-12-24T05:18:36;15.50;;;3.45;;
31284;SDS011;56605;51.516;6.742;2022-12-24T05:21:02;15.73;;;3.00;;
31284;SDS011;56605;51.516;6.742;2022-12-24T05:23:27;11.00;;;3.03;;
31284;SDS011;56605;51.516;6.742;2022-12-24T05:26:16;15.48;;;3.13;;
31284;SDS011;56605;51.516;6.742;2022-12-24T05:28:52;10.90;;;2.53;;
31284;SDS011;56605;51.516;6.742;2022-12-24T05:31:20;10.57;;;3.00;;
31284;SDS011;56605;51.516;6.742;2022-12-24T05:33:46;11.68;;;3.47;;
31284;SDS011;56605;51.516;6.742;2022-12-24T05:36:12;19.33;;;4.20;;
31284;SDS011;56605;51.516;6.742;2022-12-24T05:38:38;14.82;;;2.92;;
31284;SDS011;56605;51.516;6.742;2022-12-24T05:41:03;19.58;;;3.25;;
31284;SDS011;56605;51.516;6.742;2022-12-24T05:43:29;17.05;;;2.70;;
31284;SDS011;56605;51.516;6.742;2022-12-24T05:45:59;29.38;;;3.65;;
31284;SDS011;56605;51.516;6.742;2022-12-24T05:48:24;21.60;;;3.72;;
31284;SDS011;56605;51.516;6.742;2022-12-24T05:50:50;13.15;;;3.35;;
31284;SDS011;56605;51.516;6.742;2022-12-24T05:53:15;15.43;;;2.53;;
31284;SDS011;56605;51.516;6.742;2022-12-24T05:55:40;21.02;;;3.58;;
31284;SDS011;56605;51.516;6.742;2022-12-24T05:58:06;12.77;;;2.92;;
31284;SDS011;56605;51.516;6.742;2022-12-24T06:00:31;12.07;;;2.72;;
31284;SDS011;56605;51.516;6.742;2022-12-24T06:02:56;17.35;;;3.65;;
31284;SDS011;56605;51.516;6.742;2022-12-24T06:05:22;16.10;;;2.85;;
31284;SDS011;56605;51.516;6.742;2022-12-24T06:07:47;19.63;;;3.80;;
31284;SDS011;56605;51.516;6.742;2022-12-24T06:10:12;23.02;;;3.85;;
31284;SDS011;56605;51.516;6.742;2022-12-24T06:12:38;16.75;;;3.35;;
31284;SDS011;56605;51.516;6.742;2022-12-24T06:15:03;22.17;;;4.20;;
31284;SDS011;56605;51.516;6.742;2022-12-24T06:17:29;21.05;;;4.57;;
31284;SDS011;56605;51.516;6.742;2022-12-24T06:19:55;12.50;;;3.40;;
31284;SDS011;56605;51.516;6.742;2022-12-24T06:22:20;18.25;;;3.42;;
31284;SDS011;56605;51.516;6.742;2022-12-24T06:24:45;19.98;;;3.50;;
31284;SDS011;56605;51.516;6.742;2022-12-24T06:27:10;15.18;;;3.30;;
31284;SDS011;56605;51.516;6.742;2022-12-24T06:29:36;9.80;;;2.75;;
31284;SDS011;56605;51.516;6.742;2022-12-24T06:32:01;11.23;;;2.75;;
31284;SDS011;56605;51.516;6.742;2022-12-24T06:34:27;12.25;;;2.70;;
31284;SDS011;56605;51.516;6.742;2022-12-24T06:36:52;18.27;;;3.35;;
31284;SDS011;56605;51.516;6.742;2022-12-24T06:39:17;12.40;;;2.55;;
31284;SDS011;56605;51.516;6.742;2022-12-24T06:41:42;18.13;;;3.05;;
31284;SDS011;56605;51.516;6.742;2022-12-24T06:44:08;11.77;;;3.00;;
31284;SDS011;56605;51.516;6.742;2022-12-24T06:46:33;20.27;;;4.00;;
31284;SDS011;56605;51.516;6.742;2022-12-24T06:48:59;12.75;;;3.25;;
31284;SDS011;56605;51.516;6.742;2022-12-24T06:51:24;17.02;;;4.03;;
31284;SDS011;56605;51.516;6.742;2022-12-24T06:53:50;28.00;;;3.65;;
31284;SDS011;56605;51.516;6.742;2022-12-24T06:56:15;20.85;;;3.80;;
31284;SDS011;56605;51.516;6.742;2022-12-24T06:58:41;10.10;;;2.78;;
31284;SDS011;56605;51.516;6.742;2022-12-24T07:01:08;13.77;;;3.72;;
31284;SDS011;56605;51.516;6.742;2022-12-24T07:03:35;17.38;;;2.78;;
31284;SDS011;56605;51.516;6.742;2022-12-24T07:06:00;15.55;;;3.50;;
31284;SDS011;56605;51.516;6.742;2022-12-24T07:08:26;20.15;;;3.70;;
31284;SDS011;56605;51.516;6.742;2022-12-24T07:10:52;16.70;;;3.33;;
31284;SDS011;56605;51.516;6.742;2022-12-24T07:13:17;16.00;;;3.38;;
31284;SDS011;56605;51.516;6.742;2022-12-24T07:15:43;18.90;;;3.53;;
31284;SDS011;56605;51.516;6.742;2022-12-24T07:18:10;19.73;;;3.78;;
31284;SDS011;56605;51.516;6.742;2022-12-24T07:20:36;14.55;;;3.55;;
31284;SDS011;56605;51.516;6.742;2022-12-24T07:23:02;16.15;;;3.58;;
31284;SDS011;56605;51.516;6.742;2022-12-24T07:25:28;23.55;;;4.72;;
31284;SDS011;56605;51.516;6.742;2022-12-24T07:27:54;15.88;;;4.05;;
31284;SDS011;56605;51.516;6.742;2022-12-24T07:30:19;25.35;;;4.30;;
31284;SDS011;56605;51.516;6.742;2022-12-24T07:32:44;16.23;;;3.78;;
31284;SDS011;56605;51.516;6.742;2022-12-24T07:35:10;25.42;;;3.85;;
31284;SDS011;56605;51.516;6.742;2022-12-24T07:37:35;18.02;;;4.20;;
31284;SDS011;56605;51.516;6.742;2022-12-24T07:40:00;15.13;;;3.70;;
31284;SDS011;56605;51.516;6.742;2022-12-24T07:42:26;23.27;;;4.38;;
31284;SDS011;56605;51.516;6.742;2022-12-24T07:44:51;14.98;;;3.63;;
31284;SDS011;56605;51.516;6.742;2022-12-24T07:47:17;23.10;;;3.80;;
31284;SDS011;56605;51.516;6.742;2022-12-24T07:49:42;22.55;;;3.70;;
31284;SDS011;56605;51.516;6.742;2022-12-24T07:52:07;19.80;;;3.83;;
31284;SDS011;56605;51.516;6.742;2022-12-24T07:54:33;15.40;;;3.33;;
31284;SDS011;56605;51.516;6.742;2022-12-24T07:56:58;20.20;;;3.95;;
31284;SDS011;56605;51.516;6.742;2022-12-24T07:59:24;25.65;;;4.43;;
31284;SDS011;56605;51.516;6.742;2022-12-24T08:01:50;30.88;;;4.30;;
31284;SDS011;56605;51.516;6.742;2022-12-24T08:04:15;25.45;;;4.18;;
31284;SDS011;56605;51.516;6.742;2022-12-24T08:06:40;20.95;;;4.70;;
31284;SDS011;56605;51.516;6.742;2022-12-24T08:09:06;15.55;;;4.38;;
31284;SDS011;56605;51.516;6.742;2022-12-24T08:11:31;20.55;;;3.53;;
31284;SDS011;56605;51.516;6.742;2022-12-24T08:13:56;20.30;;;4.00;;
31284;SDS011;56605;51.516;6.742;2022-12-24T08:16:22;19.85;;;4.10;;
31284;SDS011;56605;51.516;6.742;2022-12-24T08:18:47;15.23;;;3.70;;
31284;SDS011;56605;51.516;6.742;2022-12-24T08:21:12;24.30;;;3.97;;
31284;SDS011;56605;51.516;6.742;2022-12-24T08:23:38;22.42;;;3.90;;
31284;SDS011;56605;51.516;6.742;2022-12-24T08:26:05;16.08;;;3.70;;
31284;SDS011;56605;51.516;6.742;2022-12-24T08:28:32;19.50;;;3.70;;
31284;SDS011;56605;51.516;6.742;2022-12-24T08:30:57;13.80;;;4.15;;
31284;SDS011;56605;51.516;6.742;2022-12-24T08:33:23;24.33;;;4.32;;
31284;SDS011;56605;51.516;6.742;2022-12-24T08:35:48;18.73;;;3.10;;
31284;SDS011;56605;51.516;6.742;2022-12-24T08:38:15;25.20;;;6.03;;
31284;SDS011;56605;51.516;6.742;2022-12-24T08:40:41;18.83;;;3.95;;
31284;SDS011;56605;51.516;6.742;2022-12-24T08:43:06;19.15;;;4.63;;
31284;SDS011;56605;51.516;6.742;2022-12-24T08:45:32;17.48;;;4.10;;
31284;SDS011;56605;51.516;6.742;2022-12-24T08:47:58;15.02;;;3.72;;
31284;SDS011;56605;51.516;6.742;2022-12-24T08:50:24;20.67;;;3.88;;
31284;SDS011;56605;51.516;6.742;2022-12-24T08:52:50;27.42;;;3.88;;
31284;SDS011;56605;51.516;6.742;2022-12-24T08:55:15;22.73;;;3.88;;
31284;SDS011;56605;51.516;6.742;2022-12-24T08:57:40;17.20;;;3.30;;
31284;SDS011;56605;51.516;6.742;2022-12-24T09:00:06;19.10;;;4.25;;
31284;SDS011;56605;51.516;6.742;2022-12-24T09:02:32;17.05;;;3.38;;
31284;SDS011;56605;51.516;6.742;2022-12-24T09:04:58;23.13;;;4.93;;
31284;SDS011;56605;51.516;6.742;2022-12-24T09:07:23;21.33;;;4.13;;
31284;SDS011;56605;51.516;6.742;2022-12-24T09:09:49;13.05;;;4.43;;
31284;SDS011;56605;51.516;6.742;2022-12-24T09:12:14;14.27;;;2.80;;
31284;SDS011;56605;51.516;6.742;2022-12-24T09:14:39;28.88;;;4.70;;
31284;SDS011;56605;51.516;6.742;2022-12-24T09:17:05;17.90;;;3.90;;
31284;SDS011;56605;51.516;6.742;2022-12-24T09:19:30;19.67;;;3.58;;
31284;SDS011;56605;51.516;6.742;2022-12-24T09:21:55;18.27;;;4.40;;
31284;SDS011;56605;51.516;6.742;2022-12-24T09:24:21;19.05;;;4.10;;
31284;SDS011;56605;51.516;6.742;2022-12-24T09:26:46;27.90;;;3.83;;
31284;SDS011;56605;51.516;6.742;2022-12-24T09:29:13;22.48;;;3.70;;
31284;SDS011;56605;51.516;6.742;2022-12-24T09:31:39;22.77;;;4.32;;
31284;SDS011;56605;51.516;6.742;2022-12-24T09:34:05;24.05;;;4.78;;
31284;SDS011;56605;51.516;6.742;2022-12-24T09:36:30;19.05;;;4.07;;
31284;SDS011;56605;51.516;6.742;2022-12-24T09:38:55;19.52;;;3.80;;
31284;SDS011;56605;51.516;6.742;2022-12-24T09:43:46;18.00;;;3.92;;
31284;SDS011;56605;51.516;6.742;2022-12-24T09:46:29;25.98;;;3.75;;
31284;SDS011;56605;51.516;6.742;2022-12-24T09:49:08;24.05;;;5.20;;
31284;SDS011;56605;51.516;6.742;2022-12-24T09:51:40;19.90;;;4.38;;
31284;SDS011;56605;51.516;6.742;2022-12-24T09:56:50;27.50;;;4.32;;
31284;SDS011;56605;51.516;6.742;2022-12-24T09:59:17;26.75;;;4.15;;
31284;SDS011;56605;51.516;6.742;2022-12-24T10:01:46;23.88;;;4.50;;
31284;SDS011;56605;51.516;6.742;2022-12-24T10:04:15;29.08;;;4.88;;
31284;SDS011;56605;51.516;6.742;2022-12-24T10:14:34;21.95;;;4.50;;
31284;SDS011;56605;51.516;6.742;2022-12-24T10:19:59;21.85;;;3.85;;
31284;SDS011;56605;51.516;6.742;2022-12-24T10:22:45;21.10;;;4.85;;
31284;SDS011;56605;51.516;6.742;2022-12-24T10:25:20;24.75;;;6.28;;
31284;SDS011;56605;51.516;6.742;2022-12-24T10:27:50;19.85;;;4.00;;
31284;SDS011;56605;51.516;6.742;2022-12-24T10:30:19;21.98;;;3.78;;
31284;SDS011;56605;51.516;6.742;2022-12-24T10:32:47;21.77;;;5.07;;
31284;SDS011;56605;51.516;6.742;2022-12-24T10:37:40;23.13;;;3.75;;
31284;SDS011;56605;51.516;6.742;2022-12-24T10:40:11;26.45;;;4.25;;
31284;SDS011;56605;51.516;6.742;2022-12-24T10:42:43;25.05;;;4.85;;
31284;SDS011;56605;51.516;6.742;2022-12-24T10:45:13;25.25;;;6.20;;
31284;SDS011;56605;51.516;6.742;2022-12-24T10:47:40;18.98;;;4.13;;
31284;SDS011;56605;51.516;6.742;2022-12-24T10:50:27;33.15;;;4.75;;
31284;SDS011;56605;51.516;6.742;2022-12-24T10:52:59;22.10;;;4.57;;
31284;SDS011;56605;51.516;6.742;2022-12-24T10:55:34;19.92;;;4.53;;
31284;SDS011;56605;51.516;6.742;2022-12-24T10:58:00;23.45;;;5.05;;
31284;SDS011;56605;51.516;6.742;2022-12-24T11:00:28;18.02;;;4.18;;
31284;SDS011;56605;51.516;6.742;2022-12-24T11:05:35;17.38;;;4.70;;
31284;SDS011;56605;51.516;6.742;2022-12-24T11:08:22;26.55;;;5.22;;
31284;SDS011;56605;51.516;6.742;2022-12-24T11:10:59;23.80;;;5.32;;
31284;SDS011;56605;51.516;6.742;2022-12-24T11:16:03;23.77;;;4.25;;
31284;SDS011;56605;51.516;6.742;2022-12-24T11:18:32;22.50;;;4.43;;
31284;SDS011;56605;51.516;6.742;2022-12-24T11:21:00;22.88;;;4.47;;
31284;SDS011;56605;51.516;6.742;2022-12-24T11:23:26;20.15;;;4.90;;
31284;SDS011;56605;51.516;6.742;2022-12-24T11:25:53;26.02;;;5.05;;
31284;SDS011;56605;51.516;6.742;2022-12-24T11:28:24;22.95;;;4.93;;
31284;SDS011;56605;51.516;6.742;2022-12-24T11:30:56;24.17;;;4.90;;
31284;SDS011;56605;51.516;6.742;2022-12-24T11:33:22;22.90;;;5.35;;
31284;SDS011;56605;51.516;6.742;2022-12-24T11:35:49;24.52;;;4.97;;
31284;SDS011;56605;51.516;6.742;2022-12-24T11:38:19;20.58;;;5.25;;
31284;SDS011;56605;51.516;6.742;2022-12-24T11:40:49;33.72;;;5.25;;
31284;SDS011;56605;51.516;6.742;2022-12-24T11:43:22;24.02;;;4.32;;
31284;SDS011;56605;51.516;6.742;2022-12-24T11:45:48;16.83;;;4.07;;
31284;SDS011;56605;51.516;6.742;2022-12-24T11:48:24;14.82;;;4.95;;
31284;SDS011;56605;51.516;6.742;2022-12-24T11:50:55;23.10;;;4.28;;
31284;SDS011;56605;51.516;6.742;2022-12-24T11:53:24;24.08;;;4.70;;
31284;SDS011;56605;51.516;6.742;2022-12-24T11:55:56;15.90;;;4.57;;
31284;SDS011;56605;51.516;6.742;2022-12-24T12:01:13;21.05;;;5.10;;
31284;SDS011;56605;51.516;6.742;2022-12-24T12:03:48;21.02;;;4.85;;
31284;SDS011;56605;51.516;6.742;2022-12-24T12:06:27;19.80;;;4.72;;
31284;SDS011;56605;51.516;6.742;2022-12-24T12:09:00;23.67;;;5.82;;
31284;SDS011;56605;51.516;6.742;2022-12-24T12:11:30;21.17;;;4.82;;
31284;SDS011;56605;51.516;6.742;2022-12-24T12:13:59;31.27;;;5.53;;
31284;SDS011;56605;51.516;6.742;2022-12-24T12:16:44;20.48;;;4.40;;
31284;SDS011;56605;51.516;6.742;2022-12-24T12:19:33;23.88;;;5.57;;
31284;SDS011;56605;51.516;6.742;2022-12-24T12:24:59;21.95;;;4.47;;
31284;SDS011;56605;51.516;6.742;2022-12-24T12:27:35;22.73;;;4.80;;
31284;SDS011;56605;51.516;6.742;2022-12-24T12:30:14;18.65;;;5.22;;
31284;SDS011;56605;51.516;6.742;2022-12-24T12:35:15;17.88;;;4.38;;
31284;SDS011;56605;51.516;6.742;2022-12-24T12:37:42;17.70;;;5.03;;
31284;SDS011;56605;51.516;6.742;2022-12-24T12:40:19;20.02;;;4.47;;
31284;SDS011;56605;51.516;6.742;2022-12-24T12:42:58;26.85;;;4.88;;
31284;SDS011;56605;51.516;6.742;2022-12-24T12:50:57;23.30;;;5.18;;
31284;SDS011;56605;51.516;6.742;2022-12-24T12:56:25;17.80;;;4.70;;
31284;SDS011;56605;51.516;6.742;2022-12-24T13:04:29;21.55;;;4.70;;
31284;SDS011;56605;51.516;6.742;2022-12-24T13:07:07;30.25;;;7.38;;
31284;SDS011;56605;51.516;6.742;2022-12-24T13:15:06;21.85;;;4.57;;
31284;SDS011;56605;51.516;6.742;2022-12-24T13:17:55;24.65;;;5.13;;
31284;SDS011;56605;51.516;6.742;2022-12-24T13:20:41;19.13;;;4.65;;
31284;SDS011;56605;51.516;6.742;2022-12-24T13:23:11;23.25;;;5.32;;
31284;SDS011;56605;51.516;6.742;2022-12-24T13:25:44;24.45;;;4.88;;
31284;SDS011;56605;51.516;6.742;2022-12-24T13:30:44;15.40;;;4.70;;
31284;SDS011;56605;51.516;6.742;2022-12-24T13:33:11;20.95;;;4.80;;
31284;SDS011;56605;51.516;6.742;2022-12-24T13:38:55;22.17;;;5.47;;
31284;SDS011;56605;51.516;6.742;2022-12-24T13:46:56;20.73;;;4.60;;
31284;SDS011;56605;51.516;6.742;2022-12-24T13:49:33;22.33;;;5.13;;
31284;SDS011;56605;51.516;6.742;2022-12-24T13:59:52;15.95;;;4.30;;
31284;SDS011;56605;51.516;6.742;2022-12-24T14:02:34;24.00;;;4.68;;
31284;SDS011;56605;51.516;6.742;2022-12-24T14:05:04;19.60;;;4.95;;
31284;SDS011;56605;51.516;6.742;2022-12-24T14:07:33;23.85;;;5.53;;
31284;SDS011;56605;51.516;6.742;2022-12-24T14:10:00;17.48;;;4.75;;
31284;SDS011;56605;51.516;6.742;2022-12-24T14:12:46;21.60;;;5.15;;
31284;SDS011;56605;51.516;6.742;2022-12-24T14:15:43;19.98;;;5.38;;
31284;SDS011;56605;51.516;6.742;2022-12-24T14:18:28;15.10;;;4.28;;
31284;SDS011;56605;51.516;6.742;2022-12-24T14:20:58;19.35;;;5.43;;
31284;SDS011;56605;51.516;6.742;2022-12-24T14:26:15;22.20;;;5.35;;
31284;SDS011;56605;51.516;6.742;2022-12-24T14:28:45;14.52;;;5.20;;
31284;SDS011;56605;51.516;6.742;2022-12-24T14:31:17;17.38;;;5.25;;
31284;SDS011;56605;51.516;6.742;2022-12-24T14:33:43;25.80;;;6.43;;
31284;SDS011;56605;51.516;6.742;2022-12-24T14:36:09;25.48;;;6.05;;
31284;SDS011;56605;51.516;6.742;2022-12-24T14:38:39;23.08;;;5.75;;
31284;SDS011;56605;51.516;6.742;2022-12-24T14:46:52;14.07;;;4.72;;
31284;SDS011;56605;51.516;6.742;2022-12-24T14:49:51;16.63;;;5.05;;
31284;SDS011;56605;51.516;6.742;2022-12-24T14:55:49;14.35;;;4.70;;
31284;SDS011;56605;51.516;6.742;2022-12-24T14:58:13;18.55;;;4.75;;
31284;SDS011;56605;51.516;6.742;2022-12-24T15:01:00;21.50;;;5.05;;
31284;SDS011;56605;51.516;6.742;2022-12-24T15:06:36;20.33;;;4.22;;
31284;SDS011;56605;51.516;6.742;2022-12-24T15:09:09;16.15;;;4.75;;
31284;SDS011;56605;51.516;6.742;2022-12-24T15:11:43;21.25;;;5.20;;
31284;SDS011;56605;51.516;6.742;2022-12-24T15:14:10;20.60;;;5.50;;
31284;SDS011;56605;51.516;6.742;2022-12-24T15:16:37;22.05;;;6.35;;
31284;SDS011;56605;51.516;6.742;2022-12-24T15:19:05;17.90;;;5.57;;
31284;SDS011;56605;51.516;6.742;2022-12-24T15:21:36;21.48;;;5.35;;
31284;SDS011;56605;51.516;6.742;2022-12-24T15:24:22;24.50;;;7.70;;
31284;SDS011;56605;51.516;6.742;2022-12-24T15:26:49;17.95;;;5.80;;
31284;SDS011;56605;51.516;6.742;2022-12-24T15:29:22;20.30;;;7.25;;
31284;SDS011;56605;51.516;6.742;2022-12-24T15:31:56;26.10;;;9.00;;
31284;SDS011;56605;51.516;6.742;2022-12-24T15:34:37;15.43;;;4.45;;
31284;SDS011;56605;51.516;6.742;2022-12-24T15:37:15;18.20;;;5.40;;
31284;SDS011;56605;51.516;6.742;2022-12-24T15:42:30;15.27;;;5.28;;
31284;SDS011;56605;51.516;6.742;2022-12-24T15:45:13;25.20;;;5.20;;
31284;SDS011;56605;51.516;6.742;2022-12-24T15:47:51;21.13;;;5.85;;
31284;SDS011;56605;51.516;6.742;2022-12-24T15:52:45;16.00;;;5.18;;
31284;SDS011;56605;51.516;6.742;2022-12-24T15:58:11;20.88;;;6.45;;
31284;SDS011;56605;51.516;6.742;2022-12-24T16:00:40;28.35;;;8.88;;
31284;SDS011;56605;51.516;6.742;2022-12-24T16:03:18;46.45;;;23.83;;
31284;SDS011;56605;51.516;6.742;2022-12-24T16:05:45;28.75;;;17.83;;
31284;SDS011;56605;51.516;6.742;2022-12-24T16:10:37;21.58;;;5.57;;
31284;SDS011;56605;51.516;6.742;2022-12-24T16:15:43;21.77;;;8.05;;
31284;SDS011;56605;51.516;6.742;2022-12-24T16:18:14;20.13;;;5.18;;
31284;SDS011;56605;51.516;6.742;2022-12-24T16:20:47;16.88;;;4.97;;
31284;SDS011;56605;51.516;6.742;2022-12-24T16:23:21;17.17;;;4.28;;
31284;SDS011;56605;51.516;6.742;2022-12-24T16:25:49;16.10;;;5.20;;
31284;SDS011;56605;51.516;6.742;2022-12-24T16:28:16;17.83;;;5.28;;
31284;SDS011;56605;51.516;6.742;2022-12-24T16:30:43;14.20;;;4.97;;
31284;SDS011;56605;51.516;6.742;2022-12-24T16:33:13;18.02;;;4.95;;
31284;SDS011;56605;51.516;6.742;2022-12-24T16:35:40;19.83;;;5.13;;